createdAt,value
2022-10-07T00:00:52.945Z,95.40
2022-10-07T00:03:50.488Z,94.93
2022-10-07T00:06:47.386Z,94.57
2022-10-07T00:09:44.684Z,94.18
2022-10-07T00:12:41.723Z,93.92
2022-10-07T00:15:38.569Z,93.89
2022-10-07T00:18:36.290Z,93.57
2022-10-07T00:21:34.361Z,92.75
2022-10-07T00:24:31.692Z,93.34
2022-10-07T00:27:28.810Z,93.40
2022-10-07T00:30:25.783Z,93.13
2022-10-07T00:33:22.513Z,93.26
2022-10-07T00:36:27.010Z,92.40
2022-10-07T00:39:24.759Z,92.06
2022-10-07T00:42:21.362Z,90.96
2022-10-07T00:45:21.604Z,91.60
2022-10-07T00:48:21.460Z,92.17
2022-10-07T00:51:18.765Z,92.13
2022-10-07T00:54:15.907Z,92.39
2022-10-07T00:57:12.866Z,92.11
2022-10-07T01:00:10.490Z,91.52
2022-10-07T01:03:07.554Z,91.31
2022-10-07T01:06:05.312Z,92.08
2022-10-07T01:09:02.993Z,92.43
2022-10-07T01:12:03.667Z,92.17
2022-10-07T01:15:24.940Z,91.83
2022-10-07T01:18:46.519Z,91.69
2022-10-07T01:21:47.253Z,92.08
2022-10-07T01:25:12.574Z,92.21
2022-10-07T01:28:25.093Z,93.16
2022-10-07T01:31:27.140Z,93.47
2022-10-07T01:34:26.502Z,94.03
2022-10-07T01:37:24.015Z,94.31
2022-10-07T01:40:27.436Z,94.53
2022-10-07T01:43:24.835Z,93.45
2022-10-07T01:46:26.692Z,93.53
2022-10-07T01:49:26.819Z,93.55
2022-10-07T01:52:45.170Z,94.56
2022-10-07T01:55:51.170Z,95.57
2022-10-07T01:58:56.865Z,95.49
2022-10-07T02:02:28.274Z,95.20
2022-10-07T02:05:41.953Z,95.85
2022-10-07T02:08:49.043Z,96.22
2022-10-07T02:11:46.362Z,95.54
2022-10-07T02:14:48.953Z,95.18
2022-10-07T02:17:56.554Z,95.93
2022-10-07T02:20:53.523Z,96.35
2022-10-07T02:23:51.890Z,96.79
2022-10-07T02:26:50.092Z,96.88
2022-10-07T02:29:47.465Z,96.66
2022-10-07T02:32:51.038Z,97.64
2022-10-07T02:35:51.603Z,97.93
2022-10-07T02:38:48.810Z,98.91
2022-10-07T02:42:11.685Z,98.89
2022-10-07T02:45:14.240Z,98.64
2022-10-07T02:48:23.376Z,99.21
2022-10-07T02:51:21.511Z,99.72
2022-10-07T02:54:23.256Z,99.59
2022-10-07T02:57:20.505Z,98.88
2022-10-07T03:00:17.644Z,98.31
2022-10-07T03:03:21.861Z,97.64
2022-10-07T03:06:26.116Z,97.99
2022-10-07T03:09:23.582Z,97.81
2022-10-07T03:12:20.637Z,98.22
2022-10-07T03:15:17.811Z,98.93
2022-10-07T03:18:26.662Z,99.17
2022-10-07T03:21:33.583Z,99.94
2022-10-07T03:24:31.956Z,100.00
2022-10-07T03:27:29.166Z,100.00
2022-10-07T03:30:26.525Z,98.99
2022-10-07T03:33:25.080Z,98.97
2022-10-07T03:36:23.238Z,99.53
2022-10-07T03:39:20.980Z,100.00
2022-10-07T03:42:19.566Z,100.00
2022-10-07T03:45:16.415Z,100.00
2022-10-07T03:48:13.922Z,100.00
2022-10-07T03:51:10.674Z,99.35
2022-10-07T03:54:09.403Z,97.69
2022-10-07T03:57:26.452Z,97.50
2022-10-07T04:00:24.552Z,98.80
2022-10-07T04:03:24.597Z,98.83
2022-10-07T04:06:21.829Z,99.23
2022-10-07T04:09:20.627Z,100.00
2022-10-07T04:12:17.557Z,100.00
2022-10-07T04:15:14.639Z,99.97
2022-10-07T04:18:13.683Z,99.36
2022-10-07T04:21:10.867Z,100.00
2022-10-07T04:24:07.564Z,100.00
2022-10-07T04:27:06.945Z,100.00
2022-10-07T04:30:05.288Z,100.00
2022-10-07T04:33:02.993Z,100.00
2022-10-07T04:36:07.980Z,100.00
2022-10-07T04:39:09.864Z,100.00
2022-10-07T04:42:34.782Z,100.00
2022-10-07T04:45:35.649Z,100.00
2022-10-07T04:48:32.884Z,100.00
2022-10-07T04:51:31.258Z,100.00
2022-10-07T04:54:29.559Z,100.00
2022-10-07T04:57:26.583Z,100.00
2022-10-07T05:00:24.077Z,100.00
2022-10-07T05:03:21.692Z,100.00
2022-10-07T05:06:19.995Z,100.00
2022-10-07T05:09:16.858Z,100.00
2022-10-07T05:12:17.766Z,100.00
2022-10-07T05:15:15.832Z,100.00
2022-10-07T05:18:13.866Z,100.00
2022-10-07T05:21:11.252Z,100.00
2022-10-07T05:24:12.671Z,100.00
2022-10-07T05:27:10.010Z,100.00
2022-10-07T05:30:09.354Z,100.00
2022-10-07T05:33:07.310Z,100.00
2022-10-07T05:36:05.629Z,100.00
2022-10-07T05:39:02.709Z,100.00
2022-10-07T05:42:10.685Z,100.00
2022-10-07T05:45:12.712Z,100.00
2022-10-07T05:48:09.669Z,100.00
2022-10-07T05:51:08.323Z,100.00
2022-10-07T05:54:05.968Z,100.00
2022-10-07T05:57:10.846Z,100.00
2022-10-07T06:00:08.702Z,100.00
2022-10-07T06:03:11.285Z,100.00
2022-10-07T06:06:09.119Z,100.00
2022-10-07T06:09:25.540Z,100.00
2022-10-07T06:12:43.213Z,100.00
2022-10-07T06:15:43.502Z,100.00
2022-10-07T06:18:40.888Z,100.00
2022-10-07T06:21:38.982Z,100.00
2022-10-07T06:24:35.814Z,100.00
2022-10-07T06:27:34.956Z,100.00
2022-10-07T06:30:33.754Z,100.00
2022-10-07T06:33:33.274Z,100.00
2022-10-07T06:36:30.841Z,100.00
2022-10-07T06:39:28.565Z,100.00
2022-10-07T06:42:27.088Z,100.00
2022-10-07T06:45:47.037Z,100.00
2022-10-07T06:48:46.720Z,100.00
2022-10-07T06:51:46.934Z,100.00
2022-10-07T06:54:44.889Z,100.00
2022-10-07T06:57:56.191Z,100.00
2022-10-07T07:00:54.294Z,100.00
2022-10-07T07:03:54.146Z,99.42
2022-10-07T07:06:51.636Z,98.48
2022-10-07T07:09:48.962Z,98.02
2022-10-07T07:12:46.240Z,96.88
2022-10-07T07:15:43.875Z,96.57
2022-10-07T07:18:40.803Z,95.58
2022-10-07T07:21:40.850Z,94.63
2022-10-07T07:24:41.352Z,93.03
2022-10-07T07:27:38.945Z,92.51
2022-10-07T07:30:37.273Z,92.22
2022-10-07T07:33:40.077Z,90.37
2022-10-07T07:36:37.022Z,89.46
2022-10-07T07:39:35.730Z,88.41
2022-10-07T07:42:40.007Z,89.49
2022-10-07T07:45:37.028Z,89.17
2022-10-07T07:48:34.625Z,88.44
2022-10-07T07:51:32.900Z,88.23
2022-10-07T07:54:30.602Z,87.21
2022-10-07T07:57:28.396Z,88.20
2022-10-07T08:00:27.945Z,86.72
2022-10-07T08:03:35.047Z,85.69
2022-10-07T08:06:32.663Z,83.93
2022-10-07T08:09:31.994Z,83.92
2022-10-07T08:12:28.978Z,82.88
2022-10-07T08:15:26.133Z,82.34
2022-10-07T08:18:22.868Z,82.02
2022-10-07T08:21:21.096Z,81.22
2022-10-07T08:24:22.908Z,82.30
2022-10-07T08:27:20.476Z,81.73
2022-10-07T08:30:17.837Z,81.11
2022-10-07T08:33:15.788Z,80.52
2022-10-07T08:36:17.710Z,80.54
2022-10-07T08:39:15.127Z,79.60
2022-10-07T08:42:16.904Z,79.83
2022-10-07T08:45:19.289Z,79.74
2022-10-07T08:48:22.602Z,79.44
2022-10-07T08:51:39.264Z,78.77
2022-10-07T08:54:36.013Z,79.38
2022-10-07T08:58:12.025Z,77.71
2022-10-07T09:01:32.168Z,76.95
2022-10-07T09:04:41.213Z,77.60
2022-10-07T09:07:48.176Z,77.23
2022-10-07T09:10:50.286Z,79.08
2022-10-07T09:14:02.771Z,78.21
2022-10-07T09:17:13.173Z,77.15
2022-10-07T09:20:16.572Z,75.79
2022-10-07T09:23:15.406Z,76.43
2022-10-07T09:26:14.712Z,76.51
2022-10-07T09:29:12.000Z,76.66
2022-10-07T09:32:17.706Z,75.37
2022-10-07T09:35:17.646Z,75.83
2022-10-07T09:38:17.238Z,75.89
2022-10-07T09:41:32.338Z,75.42
2022-10-07T09:44:30.499Z,73.87
2022-10-07T09:47:30.621Z,74.88
2022-10-07T09:50:39.609Z,73.45
2022-10-07T09:53:38.180Z,73.03
2022-10-07T09:56:37.638Z,73.00
2022-10-07T09:59:36.078Z,72.42
2022-10-07T10:02:32.957Z,73.64
2022-10-07T10:05:35.205Z,72.80
2022-10-07T10:08:35.954Z,71.18
2022-10-07T10:11:34.221Z,71.24
2022-10-07T10:14:59.918Z,72.28
2022-10-07T10:17:58.618Z,71.26
2022-10-07T10:21:13.885Z,71.28
2022-10-07T10:24:12.334Z,71.31
2022-10-07T10:27:21.227Z,71.80
2022-10-07T10:30:22.047Z,71.90
2022-10-07T10:33:42.210Z,71.88
2022-10-07T10:36:40.193Z,69.64
2022-10-07T10:40:02.259Z,69.43
2022-10-07T10:43:07.979Z,67.62
2022-10-07T10:46:23.974Z,67.71
2022-10-07T10:49:26.119Z,68.83
2022-10-07T10:52:35.116Z,66.45
2022-10-07T10:55:48.894Z,64.18
2022-10-07T10:59:18.714Z,61.85
2022-10-07T11:02:36.973Z,62.09
2022-10-07T11:05:35.773Z,63.17
2022-10-07T11:08:38.290Z,63.10
2022-10-07T11:11:36.336Z,63.27
2022-10-07T11:14:46.203Z,62.75
2022-10-07T11:17:43.024Z,63.79
2022-10-07T11:20:48.232Z,64.66
2022-10-07T11:24:18.413Z,63.77
2022-10-07T11:27:16.521Z,64.10
2022-10-07T11:30:23.168Z,64.67
2022-10-07T11:33:24.598Z,63.26
2022-10-07T11:36:24.786Z,64.07
2022-10-07T11:39:23.171Z,64.28
2022-10-07T11:42:24.686Z,64.36
2022-10-07T11:45:26.350Z,63.85
2022-10-07T11:48:34.249Z,64.75
2022-10-07T11:51:50.521Z,64.93
2022-10-07T11:55:09.527Z,64.32
2022-10-07T11:58:08.330Z,64.54
2022-10-07T12:01:28.652Z,64.76
2022-10-07T12:04:35.248Z,65.07
2022-10-07T12:07:35.067Z,65.75
2022-10-07T12:10:33.565Z,66.76
2022-10-07T12:13:41.662Z,67.11
2022-10-07T12:16:39.070Z,66.20
2022-10-07T12:19:35.870Z,64.55
2022-10-07T12:22:33.339Z,65.50
2022-10-07T12:25:32.448Z,65.88
2022-10-07T12:28:40.372Z,64.11
2022-10-07T12:31:41.514Z,65.37
2022-10-07T12:34:41.260Z,66.22
2022-10-07T12:37:38.481Z,64.89
2022-10-07T12:40:36.207Z,64.59
2022-10-07T12:43:59.189Z,65.95
2022-10-07T12:47:00.894Z,64.46
2022-10-07T12:50:03.207Z,66.13
2022-10-07T12:53:01.479Z,64.09
2022-10-07T12:55:57.832Z,64.41
2022-10-07T12:59:13.249Z,65.07
2022-10-07T13:02:44.452Z,64.36
2022-10-07T13:05:57.477Z,63.25
2022-10-07T13:09:03.919Z,63.53
2022-10-07T13:12:12.941Z,64.72
2022-10-07T13:15:13.199Z,62.83
2022-10-07T13:18:16.461Z,63.44
2022-10-07T13:21:22.158Z,62.09
2022-10-07T13:24:24.213Z,61.43
2022-10-07T13:27:28.437Z,62.81
2022-10-07T13:30:39.056Z,62.41
2022-10-07T13:33:36.363Z,62.53
2022-10-07T13:36:33.962Z,62.89
2022-10-07T13:39:31.358Z,63.16
2022-10-07T13:42:31.205Z,62.85
2022-10-07T13:45:28.446Z,63.21
2022-10-07T13:48:28.184Z,63.28
2022-10-07T13:51:40.376Z,62.26
2022-10-07T13:54:37.476Z,62.71
2022-10-07T13:57:35.270Z,62.61
2022-10-07T14:00:33.274Z,61.46
2022-10-07T14:03:30.230Z,62.98
2022-10-07T14:06:43.360Z,62.86
2022-10-07T14:09:58.825Z,63.62
2022-10-07T14:13:00.726Z,62.94
2022-10-07T14:15:58.122Z,62.33
2022-10-07T14:18:56.214Z,62.83
2022-10-07T14:21:53.419Z,62.54
2022-10-07T14:24:54.793Z,63.24
2022-10-07T14:27:53.487Z,63.18
2022-10-07T14:31:27.255Z,62.73
2022-10-07T14:34:43.596Z,63.86
2022-10-07T14:37:41.448Z,63.55
2022-10-07T14:40:38.190Z,63.18
2022-10-07T14:43:37.270Z,62.99
2022-10-07T14:46:34.103Z,63.28
2022-10-07T14:49:31.869Z,63.28
2022-10-07T14:52:31.603Z,63.63
2022-10-07T14:55:29.601Z,63.48
2022-10-07T14:58:27.696Z,62.97
2022-10-07T15:01:25.655Z,63.01
2022-10-07T15:04:23.446Z,64.38
2022-10-07T15:07:21.434Z,63.16
2022-10-07T15:10:20.046Z,63.95
2022-10-07T15:13:17.345Z,64.38
2022-10-07T15:16:23.484Z,63.58
2022-10-07T15:19:21.454Z,63.46
2022-10-07T15:22:18.951Z,63.25
2022-10-07T15:25:18.083Z,63.19
2022-10-07T15:28:15.594Z,63.46
2022-10-07T15:31:12.348Z,63.12
2022-10-07T15:34:10.260Z,64.92
2022-10-07T15:37:09.230Z,64.98
2022-10-07T15:40:07.843Z,64.32
2022-10-07T15:43:05.638Z,64.93
2022-10-07T15:46:03.223Z,64.58
2022-10-07T15:49:00.235Z,64.28
2022-10-07T15:51:57.697Z,63.97
2022-10-07T15:54:55.496Z,63.65
2022-10-07T15:57:52.468Z,64.92
2022-10-07T16:01:05.569Z,65.03
2022-10-07T16:04:02.938Z,64.49
2022-10-07T16:07:00.759Z,64.16
2022-10-07T16:09:58.311Z,64.16
2022-10-07T16:12:55.345Z,64.22
2022-10-07T16:16:02.193Z,63.78
2022-10-07T16:19:00.400Z,64.74
2022-10-07T16:21:57.109Z,64.09
2022-10-07T16:24:55.609Z,64.10
2022-10-07T16:28:11.092Z,63.86
2022-10-07T16:31:08.622Z,64.52
2022-10-07T16:34:05.378Z,64.63
2022-10-07T16:37:02.343Z,65.16
2022-10-07T16:39:59.078Z,64.64
2022-10-07T16:42:59.369Z,64.65
2022-10-07T16:46:00.146Z,65.15
2022-10-07T16:48:57.462Z,65.18
2022-10-07T16:51:54.630Z,67.50
2022-10-07T16:54:51.442Z,67.83
2022-10-07T16:57:48.963Z,69.46
2022-10-07T17:00:46.523Z,70.36
2022-10-07T17:03:44.664Z,71.26
2022-10-07T17:06:43.950Z,72.07
2022-10-07T17:09:41.270Z,72.86
2022-10-07T17:12:38.557Z,72.86
2022-10-07T17:15:39.766Z,73.57
2022-10-07T17:18:37.654Z,74.22
2022-10-07T17:21:39.754Z,74.30
2022-10-07T17:24:37.353Z,74.14
2022-10-07T17:27:34.403Z,73.83
2022-10-07T17:30:33.338Z,73.77
2022-10-07T17:33:31.161Z,73.52
2022-10-07T17:36:28.444Z,73.18
2022-10-07T17:39:25.501Z,73.13
2022-10-07T17:42:22.487Z,73.42
2022-10-07T17:45:19.480Z,74.37
2022-10-07T17:48:16.574Z,73.82
2022-10-07T17:51:15.204Z,74.29
2022-10-07T17:54:12.873Z,74.70
2022-10-07T17:57:10.674Z,75.87
2022-10-07T18:00:08.078Z,76.22
2022-10-07T18:03:13.178Z,75.73
2022-10-07T18:06:10.767Z,75.70
2022-10-07T18:09:09.255Z,75.96
2022-10-07T18:12:25.039Z,75.72
2022-10-07T18:15:22.319Z,75.92
2022-10-07T18:18:19.668Z,76.25
2022-10-07T18:21:16.279Z,76.53
2022-10-07T18:24:13.614Z,76.76
2022-10-07T18:27:10.585Z,76.76
2022-10-07T18:30:08.339Z,77.33
2022-10-07T18:33:05.446Z,78.18
2022-10-07T18:36:03.551Z,77.99
2022-10-07T18:39:00.133Z,78.35
2022-10-07T18:41:58.307Z,79.05
2022-10-07T18:44:55.456Z,79.19
2022-10-07T18:47:52.366Z,80.61
2022-10-07T18:50:52.609Z,80.58
2022-10-07T18:53:49.429Z,81.09
2022-10-07T18:56:47.271Z,81.16
2022-10-07T18:59:44.161Z,81.56
2022-10-07T19:02:44.978Z,81.74
2022-10-07T19:05:42.587Z,82.06
2022-10-07T19:08:40.006Z,81.98
2022-10-07T19:11:37.450Z,81.39
2022-10-07T19:14:35.098Z,81.37
2022-10-07T19:17:32.340Z,81.21
2022-10-07T19:20:29.916Z,81.39
2022-10-07T19:23:27.880Z,81.58
2022-10-07T19:26:26.571Z,81.83
2022-10-07T19:29:23.707Z,81.38
2022-10-07T19:32:21.213Z,80.86
2022-10-07T19:35:18.565Z,80.64
2022-10-07T19:38:15.701Z,79.40
2022-10-07T19:41:14.262Z,79.26
2022-10-07T19:44:11.748Z,79.21
2022-10-07T19:47:08.861Z,78.55
2022-10-07T19:50:06.882Z,79.19
2022-10-07T19:53:04.951Z,79.67
2022-10-07T19:56:06.174Z,78.76
2022-10-07T19:59:08.599Z,77.17
2022-10-07T20:02:08.429Z,76.69
2022-10-07T20:05:07.131Z,77.88
2022-10-07T20:08:09.358Z,78.79
2022-10-07T20:11:07.403Z,79.69
2022-10-07T20:14:05.835Z,80.09
2022-10-07T20:17:02.730Z,80.64
2022-10-07T20:19:59.334Z,79.55
2022-10-07T20:22:57.824Z,79.40
2022-10-07T20:25:54.544Z,78.79
2022-10-07T20:28:54.239Z,79.33
2022-10-07T20:31:52.511Z,80.09
2022-10-07T20:34:50.273Z,79.91
2022-10-07T20:37:47.996Z,78.27
2022-10-07T20:41:04.199Z,77.11
2022-10-07T20:44:01.510Z,77.59
2022-10-07T20:46:58.774Z,78.05
2022-10-07T20:49:56.758Z,76.53
2022-10-07T20:52:53.726Z,76.76
2022-10-07T20:55:50.286Z,76.15
2022-10-07T20:58:47.486Z,77.10
2022-10-07T21:01:45.070Z,75.76
2022-10-07T21:04:42.538Z,75.13
2022-10-07T21:07:40.247Z,75.04
2022-10-07T21:10:37.927Z,76.50
2022-10-07T21:13:34.424Z,76.29
2022-10-07T21:16:32.154Z,76.01
2022-10-07T21:19:31.677Z,77.03
2022-10-07T21:22:28.714Z,80.44
2022-10-07T21:25:26.610Z,82.55
2022-10-07T21:28:25.196Z,83.30
2022-10-07T21:31:22.944Z,84.05
2022-10-07T21:34:20.988Z,84.56
2022-10-07T21:37:18.763Z,85.43
2022-10-07T21:40:15.523Z,86.61
2022-10-07T21:43:12.810Z,87.38
2022-10-07T21:46:10.838Z,87.42
2022-10-07T21:49:07.845Z,88.10
2022-10-07T21:52:04.591Z,88.27
2022-10-07T21:55:01.474Z,88.38
2022-10-07T21:57:58.457Z,88.52
2022-10-07T22:00:55.949Z,87.37
2022-10-07T22:03:55.002Z,86.92
2022-10-07T22:07:11.270Z,86.14
2022-10-07T22:10:08.864Z,86.35
2022-10-07T22:13:05.845Z,86.75
2022-10-07T22:16:04.149Z,86.19
2022-10-07T22:19:01.662Z,84.48
2022-10-07T22:22:00.036Z,82.13
2022-10-07T22:24:57.474Z,80.68
2022-10-07T22:27:54.417Z,80.84
2022-10-07T22:30:51.737Z,82.45
2022-10-07T22:33:53.367Z,82.63
2022-10-07T22:36:50.653Z,82.07
2022-10-07T22:39:47.581Z,81.28
2022-10-07T22:42:46.384Z,80.99
2022-10-07T22:45:43.716Z,81.57
2022-10-07T22:48:43.271Z,82.70
2022-10-07T22:51:40.463Z,83.01
2022-10-07T22:54:37.890Z,82.04
2022-10-07T22:57:36.519Z,84.04
2022-10-07T23:00:33.996Z,83.93
2022-10-07T23:03:31.585Z,83.46
2022-10-07T23:06:29.556Z,83.27
2022-10-07T23:09:26.725Z,82.43
2022-10-07T23:12:23.530Z,80.77
2022-10-07T23:15:20.891Z,80.12
2022-10-07T23:18:17.808Z,79.68
2022-10-07T23:21:19.521Z,80.01
2022-10-07T23:24:16.593Z,80.69
2022-10-07T23:27:15.045Z,81.69
2022-10-07T23:30:11.999Z,81.88
2022-10-07T23:33:08.466Z,81.16
2022-10-07T23:36:09.081Z,80.19
2022-10-07T23:39:06.452Z,80.07
2022-10-07T23:42:03.779Z,79.61
2022-10-07T23:45:03.269Z,80.38
2022-10-07T23:48:00.608Z,81.24
2022-10-07T23:50:57.338Z,80.42
2022-10-07T23:54:01.665Z,79.97
2022-10-07T23:56:58.614Z,79.74
2022-10-07T23:59:55.970Z,80.64
